Time;durP1;ratioP1;P1;durP2;ratioP2;P2;SDS_P1;SDS_P2;PMS_P1;PMS_P2;Temp;Humidity;BMP_temperature;BMP_pressure;BME280_temperature;BME280_humidity;BME280_pressure;Samples;Min_cycle;Max_cycle;Signal;HPM_P1;HPM_P2
2022/06/26 00:01:26;;;;;;;50.55;38.50;;;;;;;;;;5017692;28;20394;-70
2022/06/26 00:03:52;;;;;;;62.75;43.40;;;;;;;;;;5053378;28;20122;-69
2022/06/26 00:06:18;;;;;;;59.47;43.10;;;;;;;;;;5034323;28;20482;-70
2022/06/26 00:08:44;;;;;;;50.13;33.85;;;;;;;;;;5051881;28;20067;-69
2022/06/26 00:11:10;;;;;;;54.50;38.53;;;;;;;;;;5051814;28;20476;-69
2022/06/26 00:13:36;;;;;;;52.80;37.58;;;;;;;;;;5051826;28;20079;-69
2022/06/26 00:16:02;;;;;;;57.47;36.80;;;;;;;;;;5033809;28;20033;-69
2022/06/26 00:18:28;;;;;;;55.05;40.40;;;;;;;;;;5051656;28;20071;-69
2022/06/26 00:20:54;;;;;;;49.45;36.20;;;;;;;;;;5051711;28;20060;-69
2022/06/26 00:23:20;;;;;;;40.08;31.98;;;;;;;;;;5052030;28;20497;-69
2022/06/26 00:25:46;;;;;;;59.65;42.33;;;;;;;;;;5051574;28;20037;-69
2022/06/26 00:28:12;;;;;;;63.83;45.65;;;;;;;;;;5051915;28;20441;-69
2022/06/26 00:30:38;;;;;;;64.50;43.75;;;;;;;;;;5051442;28;20501;-69
2022/06/26 00:33:04;;;;;;;56.13;40.10;;;;;;;;;;5052808;28;20039;-69
2022/06/26 00:35:30;;;;;;;60.88;41.63;;;;;;;;;;5053450;28;20055;-69
2022/06/26 00:37:56;;;;;;;65.43;48.63;;;;;;;;;;5070312;28;20177;-69
2022/06/26 00:40:22;;;;;;;60.00;47.80;;;;;;;;;;5070280;28;20127;-69
2022/06/26 00:42:48;;;;;;;51.22;37.05;;;;;;;;;;5070125;28;20029;-69
2022/06/26 00:45:14;;;;;;;36.00;25.17;;;;;;;;;;5071385;28;20053;-70
2022/06/26 00:47:40;;;;;;;44.85;26.38;;;;;;;;;;5069702;28;20147;-70
2022/06/26 00:50:07;;;;;;;42.50;30.23;;;;;;;;;;5071104;28;20127;-68
2022/06/26 00:52:34;;;;;;;38.75;30.25;;;;;;;;;;5071028;28;20098;-70
2022/06/26 00:55:00;;;;;;;56.88;35.45;;;;;;;;;;5070945;28;20076;-69
2022/06/26 05:51:04;;;;;;;17.33;6.80;;;;;;;;;;5063224;28;20413;-70
2022/06/26 05:53:48;;;;;;;7.47;5.95;;;;;;;;;;5048726;28;20072;-68
2022/06/26 05:56:43;;;;;;;18.13;5.90;;;;;;;;;;4978532;28;20158;-70
2022/06/26 05:59:22;;;;;;;14.90;5.38;;;;;;;;;;5065386;28;20045;-69
2022/06/26 06:02:11;;;;;;;8.57;4.72;;;;;;;;;;5049676;28;20041;-70
2022/06/26 06:04:36;;;;;;;10.13;4.63;;;;;;;;;;5049927;28;20544;-72
2022/06/26 06:07:04;;;;;;;20.20;5.88;;;;;;;;;;5065055;28;20065;-70
2022/06/26 06:09:30;;;;;;;20.30;5.20;;;;;;;;;;5031875;28;20055;-70
2022/06/26 06:11:56;;;;;;;8.15;4.40;;;;;;;;;;5064869;28;20509;-71
2022/06/26 06:14:21;;;;;;;11.02;4.97;;;;;;;;;;5049776;28;20048;-69
2022/06/26 06:16:47;;;;;;;7.35;5.43;;;;;;;;;;5048127;28;20049;-71
2022/06/26 06:19:13;;;;;;;10.23;4.60;;;;;;;;;;5048502;28;20060;-69
2022/06/26 06:21:43;;;;;;;8.48;5.22;;;;;;;;;;5065189;28;20055;-69
2022/06/26 06:24:10;;;;;;;7.25;5.18;;;;;;;;;;5049423;28;20045;-71
2022/06/26 06:26:37;;;;;;;5.80;4.25;;;;;;;;;;5048434;28;20041;-69
2022/06/26 06:29:18;;;;;;;9.68;5.53;;;;;;;;;;5064880;28;20198;-70
2022/06/26 06:31:44;;;;;;;6.10;3.40;;;;;;;;;;5065043;28;20740;-70
2022/06/26 06:34:10;;;;;;;8.73;3.70;;;;;;;;;;5048039;28;20088;-70
2022/06/26 06:36:36;;;;;;;5.63;3.53;;;;;;;;;;5064790;28;20045;-69
2022/06/26 06:39:05;;;;;;;4.93;3.70;;;;;;;;;;5047949;28;20593;-70
2022/06/26 06:41:31;;;;;;;5.25;3.30;;;;;;;;;;5064979;28;20029;-70
2022/06/26 06:44:05;;;;;;;6.03;3.20;;;;;;;;;;5048031;28;20132;-70
2022/06/26 06:46:31;;;;;;;7.82;3.58;;;;;;;;;;5049409;28;20127;-70
2022/06/26 06:49:05;;;;;;;3.70;3.25;;;;;;;;;;5044366;28;20063;-67
2022/06/26 06:51:35;;;;;;;4.43;3.20;;;;;;;;;;5048225;28;20159;-69
2022/06/26 06:54:01;;;;;;;4.18;3.22;;;;;;;;;;5047816;28;20051;-69
2022/06/26 06:56:29;;;;;;;3.60;3.30;;;;;;;;;;5031403;28;20045;-69
2022/06/26 06:58:54;;;;;;;7.40;3.72;;;;;;;;;;5048116;28;20051;-71
2022/06/26 07:01:20;;;;;;;4.90;3.35;;;;;;;;;;5048335;28;20433;-69
2022/06/26 07:03:46;;;;;;;6.05;3.33;;;;;;;;;;5048375;28;20049;-69
2022/06/26 07:06:12;;;;;;;8.65;3.35;;;;;;;;;;5049233;28;20098;-69
2022/06/26 07:08:38;;;;;;;4.75;2.97;;;;;;;;;;5053331;28;20122;-71
2022/06/26 07:11:05;;;;;;;5.82;2.95;;;;;;;;;;5051743;28;20044;-69
2022/06/26 07:13:31;;;;;;;4.90;3.05;;;;;;;;;;5035270;28;20124;-69
2022/06/26 07:15:57;;;;;;;3.88;3.10;;;;;;;;;;5052860;28;20143;-68
2022/06/26 07:18:24;;;;;;;4.85;3.13;;;;;;;;;;5035243;28;20211;-69
2022/06/26 07:20:53;;;;;;;;;;;;;;;;;;5051814;28;20128;-70
2022/06/26 07:23:18;;;;;;;3.97;3.15;;;;;;;;;;5018391;28;20433;-71
2022/06/26 07:25:50;;;;;;;3.97;3.20;;;;;;;;;;5019478;28;20043;-70
2022/06/26 07:28:18;;;;;;;4.03;3.03;;;;;;;;;;5051490;28;20433;-71
2022/06/26 07:30:45;;;;;;;6.55;3.20;;;;;;;;;;5051371;28;20037;-69
2022/06/26 07:35:57;;;;;;;3.70;3.10;;;;;;;;;;5051202;28;20151;-69
2022/06/26 07:38:23;;;;;;;10.55;2.70;;;;;;;;;;5034840;28;20064;-69
2022/06/26 07:40:49;;;;;;;3.38;3.08;;;;;;;;;;5051366;28;20481;-70
2022/06/26 07:43:15;;;;;;;3.40;2.92;;;;;;;;;;5034395;28;20509;-70
2022/06/26 07:45:41;;;;;;;3.65;3.33;;;;;;;;;;5034761;28;20124;-69
2022/06/26 07:48:10;;;;;;;4.38;3.10;;;;;;;;;;5034301;28;20111;-70
2022/06/26 07:50:39;;;;;;;3.15;2.80;;;;;;;;;;5052477;28;20433;-69
2022/06/26 07:53:05;;;;;;;3.50;3.20;;;;;;;;;;5052042;28;20049;-70
2022/06/26 07:55:31;;;;;;;3.40;3.10;;;;;;;;;;5034348;28;20497;-70
2022/06/26 07:57:57;;;;;;;3.88;3.28;;;;;;;;;;5051780;28;20119;-70
2022/06/26 08:00:23;;;;;;;8.65;2.83;;;;;;;;;;5052283;28;20115;-70
2022/06/26 08:02:50;;;;;;;6.60;3.55;;;;;;;;;;5052028;28;20052;-69
2022/06/26 08:05:15;;;;;;;3.67;3.38;;;;;;;;;;5051904;28;20539;-70
2022/06/26 08:07:41;;;;;;;4.28;3.42;;;;;;;;;;5051668;28;20083;-70
2022/06/26 08:10:07;;;;;;;5.65;3.28;;;;;;;;;;5051801;28;20529;-69
2022/06/26 08:12:33;;;;;;;6.38;3.42;;;;;;;;;;5051918;28;20036;-69
2022/06/26 08:14:59;;;;;;;5.50;3.45;;;;;;;;;;5050516;28;20331;-71
2022/06/26 08:17:25;;;;;;;5.78;3.00;;;;;;;;;;5050536;28;20041;-69
2022/06/26 08:19:51;;;;;;;5.43;3.47;;;;;;;;;;5052136;28;20513;-69
2022/06/26 08:22:17;;;;;;;5.93;3.20;;;;;;;;;;5051462;28;20049;-69
2022/06/26 08:24:44;;;;;;;5.10;3.75;;;;;;;;;;5051985;28;20045;-70
2022/06/26 08:27:10;;;;;;;6.57;3.33;;;;;;;;;;5051012;28;20063;-71
2022/06/26 08:29:36;;;;;;;4.43;3.28;;;;;;;;;;5051723;28;20103;-69
2022/06/26 08:32:02;;;;;;;4.28;3.85;;;;;;;;;;5051274;28;20045;-70
2022/06/26 08:34:28;;;;;;;4.65;3.58;;;;;;;;;;5051919;28;20037;-69
2022/06/26 08:36:54;;;;;;;4.30;3.40;;;;;;;;;;5051593;28;20136;-69
2022/06/26 08:39:21;;;;;;;4.47;3.40;;;;;;;;;;5051257;28;20051;-69
2022/06/26 08:41:47;;;;;;;5.95;3.45;;;;;;;;;;5051366;28;20072;-70
2022/06/26 08:44:13;;;;;;;3.92;3.40;;;;;;;;;;5049996;28;20072;-70
2022/06/26 08:46:39;;;;;;;4.65;3.35;;;;;;;;;;5051345;28;20187;-72
2022/06/26 08:49:19;;;;;;;4.60;3.35;;;;;;;;;;5039543;28;20052;-70
2022/06/26 08:51:46;;;;;;;4.50;3.50;;;;;;;;;;5071089;28;20045;-69
2022/06/26 08:54:15;;;;;;;6.07;3.10;;;;;;;;;;5070927;28;20044;-70
2022/06/26 08:56:41;;;;;;;4.80;3.45;;;;;;;;;;5070974;28;20041;-69
2022/06/26 08:59:07;;;;;;;4.32;3.28;;;;;;;;;;5070819;28;20047;-69
2022/06/26 09:01:35;;;;;;;4.07;3.70;;;;;;;;;;5036517;28;20041;-69
2022/06/26 09:04:00;;;;;;;4.88;3.50;;;;;;;;;;5052678;28;20048;-70
2022/06/26 09:06:26;;;;;;;9.63;3.67;;;;;;;;;;5070860;28;20112;-70
2022/06/26 09:08:52;;;;;;;4.40;3.15;;;;;;;;;;5070867;28;20151;-69
2022/06/26 09:11:18;;;;;;;3.65;3.33;;;;;;;;;;5052511;28;20037;-69
2022/06/26 09:13:45;;;;;;;11.63;3.50;;;;;;;;;;5070919;28;20048;-70
2022/06/26 09:16:11;;;;;;;9.02;3.78;;;;;;;;;;5052439;28;20075;-70
2022/06/26 09:18:37;;;;;;;4.68;3.63;;;;;;;;;;5070653;28;20148;-70
2022/06/26 09:21:04;;;;;;;4.47;3.33;;;;;;;;;;5070369;28;20612;-70
2022/06/26 09:23:31;;;;;;;5.88;3.63;;;;;;;;;;5070564;28;20040;-71
2022/06/26 09:25:57;;;;;;;6.25;3.20;;;;;;;;;;5070700;28;20070;-70
2022/06/26 09:28:22;;;;;;;7.80;3.60;;;;;;;;;;5051757;28;20044;-69
2022/06/26 09:30:50;;;;;;;7.72;3.67;;;;;;;;;;5052684;28;20036;-70
2022/06/26 09:33:17;;;;;;;5.35;3.45;;;;;;;;;;5068845;28;20512;-70
2022/06/26 09:35:42;;;;;;;6.38;3.47;;;;;;;;;;5070456;28;20055;-69
2022/06/26 09:38:08;;;;;;;4.35;3.63;;;;;;;;;;5068874;28;20427;-69
2022/06/26 09:40:34;;;;;;;5.03;3.55;;;;;;;;;;5070522;28;20128;-70
2022/06/26 09:43:00;;;;;;;10.23;3.35;;;;;;;;;;5069973;28;20032;-69
2022/06/26 09:45:37;;;;;;;4.70;3.60;;;;;;;;;;5053507;28;20514;-68
2022/06/26 09:48:03;;;;;;;4.82;3.67;;;;;;;;;;5071366;28;20036;-71
2022/06/26 09:50:29;;;;;;;7.30;3.42;;;;;;;;;;5052296;28;20087;-70
2022/06/26 09:52:55;;;;;;;4.53;3.65;;;;;;;;;;5048790;28;20049;-69
2022/06/26 09:55:21;;;;;;;3.92;3.60;;;;;;;;;;5049769;28;20595;-69
2022/06/26 09:57:47;;;;;;;6.28;3.50;;;;;;;;;;5049755;28;20135;-69
2022/06/26 10:00:13;;;;;;;4.00;3.70;;;;;;;;;;5049968;28;20072;-70
2022/06/26 10:08:08;;;;;;;4.97;3.75;;;;;;;;;;5032023;28;20521;-69
2022/06/26 10:10:34;;;;;;;10.02;3.75;;;;;;;;;;5049686;28;20052;-68
2022/06/26 10:13:02;;;;;;;4.22;3.55;;;;;;;;;;5048218;28;20037;-69
2022/06/26 10:15:48;;;;;;;4.25;3.42;;;;;;;;;;5049756;28;20124;-70
2022/06/26 10:18:17;;;;;;;6.40;4.05;;;;;;;;;;5028064;28;20037;-69
2022/06/26 10:20:44;;;;;;;3.72;3.53;;;;;;;;;;5049830;28;20091;-70
2022/06/26 10:23:10;;;;;;;3.60;3.40;;;;;;;;;;5049596;28;20055;-70
2022/06/26 10:25:36;;;;;;;5.18;3.88;;;;;;;;;;5049727;28;20037;-69
2022/06/26 10:28:02;;;;;;;5.60;3.60;;;;;;;;;;5048913;28;20045;-71
2022/06/26 10:30:29;;;;;;;6.72;3.47;;;;;;;;;;5048172;28;20486;-70
2022/06/26 10:33:11;;;;;;;3.75;3.17;;;;;;;;;;5049491;28;20517;-69
2022/06/26 10:35:38;;;;;;;5.93;4.10;;;;;;;;;;5048201;28;20160;-70
2022/06/26 10:38:16;;;;;;;4.57;3.75;;;;;;;;;;5049097;28;20394;-68
2022/06/26 10:43:29;;;;;;;9.07;3.30;;;;;;;;;;5031115;28;20041;-69
2022/06/26 10:46:00;;;;;;;4.50;4.10;;;;;;;;;;5048299;28;20037;-71
2022/06/26 10:48:26;;;;;;;4.93;3.80;;;;;;;;;;5047392;28;20059;-70
2022/06/26 10:50:56;;;;;;;4.18;3.80;;;;;;;;;;5031648;28;20045;-70
2022/06/26 10:53:32;;;;;;;3.95;3.65;;;;;;;;;;5049165;28;20040;-69
2022/06/26 10:56:02;;;;;;;9.23;3.63;;;;;;;;;;5031516;28;20111;-70
2022/06/26 10:58:28;;;;;;;4.13;3.75;;;;;;;;;;5048735;28;20051;-69
2022/06/26 11:00:58;;;;;;;4.60;4.07;;;;;;;;;;5031368;28;20041;-70
2022/06/26 11:03:24;;;;;;;6.95;3.97;;;;;;;;;;5048472;28;20052;-70
2022/06/26 11:05:54;;;;;;;10.43;4.03;;;;;;;;;;5049161;28;20102;-69
2022/06/26 11:08:22;;;;;;;4.45;3.65;;;;;;;;;;5048829;28;20049;-67
2022/06/26 11:10:48;;;;;;;4.20;3.90;;;;;;;;;;5049277;28;20382;-69
2022/06/26 11:13:14;;;;;;;6.65;3.80;;;;;;;;;;5048918;28;20045;-70
2022/06/26 11:15:39;;;;;;;4.22;3.92;;;;;;;;;;5049201;28;20678;-70
2022/06/26 11:18:06;;;;;;;4.30;3.90;;;;;;;;;;5047512;28;20076;-72
2022/06/26 11:20:53;;;;;;;4.50;3.70;;;;;;;;;;5049157;28;20039;-70
2022/06/26 11:23:20;;;;;;;4.40;4.07;;;;;;;;;;5048633;28;20051;-70
2022/06/26 11:25:47;;;;;;;4.07;3.80;;;;;;;;;;5049185;28;20064;-69
2022/06/26 11:28:13;;;;;;;4.40;4.03;;;;;;;;;;5048648;28;20053;-69
2022/06/26 11:30:39;;;;;;;5.18;4.07;;;;;;;;;;5048934;28;20043;-70
2022/06/26 11:33:05;;;;;;;7.15;3.85;;;;;;;;;;5048609;28;20045;-70
2022/06/26 11:35:31;;;;;;;4.00;3.67;;;;;;;;;;5048948;28;20486;-70
2022/06/26 11:37:57;;;;;;;5.82;4.05;;;;;;;;;;5049107;28;20151;-69
2022/06/26 11:40:23;;;;;;;5.07;3.70;;;;;;;;;;5048644;28;20091;-70
2022/06/26 11:42:53;;;;;;;4.30;3.90;;;;;;;;;;5031038;28;20141;-69
2022/06/26 11:45:24;;;;;;;4.35;4.05;;;;;;;;;;5048678;28;20033;-69
2022/06/26 11:47:50;;;;;;;5.55;3.83;;;;;;;;;;5031627;28;20513;-69
2022/06/26 11:50:17;;;;;;;4.22;3.90;;;;;;;;;;5063815;28;20063;-70
2022/06/26 11:52:43;;;;;;;4.68;3.90;;;;;;;;;;5071193;28;20036;-70
2022/06/26 11:55:09;;;;;;;5.63;4.22;;;;;;;;;;5072148;28;20094;-70
2022/06/26 11:57:36;;;;;;;4.28;4.00;;;;;;;;;;5072001;28;20048;-70
2022/06/26 12:00:05;;;;;;;7.78;4.05;;;;;;;;;;5054433;28;20033;-68
2022/06/26 12:02:32;;;;;;;4.30;4.03;;;;;;;;;;5072171;28;20044;-71
2022/06/26 12:04:58;;;;;;;6.00;4.03;;;;;;;;;;5054439;28;20067;-69
2022/06/26 12:07:24;;;;;;;6.60;3.92;;;;;;;;;;5054134;28;20051;-70
2022/06/26 12:09:50;;;;;;;4.50;4.18;;;;;;;;;;5072129;28;20060;-70
2022/06/26 12:12:16;;;;;;;4.90;4.07;;;;;;;;;;5071819;28;20051;-69
2022/06/26 12:14:53;;;;;;;7.07;3.70;;;;;;;;;;5071052;28;20110;-69
2022/06/26 12:17:20;;;;;;;4.05;3.70;;;;;;;;;;5071619;28;20041;-70
2022/06/26 12:19:47;;;;;;;4.38;4.03;;;;;;;;;;5071873;28;20519;-69
2022/06/26 12:22:12;;;;;;;4.40;4.10;;;;;;;;;;5053508;28;20455;-70
2022/06/26 12:24:48;;;;;;;4.72;3.78;;;;;;;;;;5071958;28;20044;-70
2022/06/26 12:27:14;;;;;;;7.95;3.90;;;;;;;;;;5071400;28;20219;-69
2022/06/26 12:29:40;;;;;;;3.67;3.03;;;;;;;;;;5071575;28;20135;-70
2022/06/26 12:32:06;;;;;;;4.32;3.55;;;;;;;;;;5069410;28;20419;-68
2022/06/26 12:34:32;;;;;;;4.28;3.88;;;;;;;;;;5070130;28;20500;-69
2022/06/26 12:36:58;;;;;;;3.83;3.53;;;;;;;;;;5053678;28;20219;-69
2022/06/26 12:39:24;;;;;;;5.35;3.30;;;;;;;;;;5071177;28;20127;-69
2022/06/26 12:41:50;;;;;;;6.47;3.78;;;;;;;;;;5071393;28;20522;-69
2022/06/26 12:44:16;;;;;;;3.95;3.60;;;;;;;;;;5071295;28;20472;-70
2022/06/26 12:46:42;;;;;;;8.27;3.90;;;;;;;;;;5071322;28;20040;-69
2022/06/26 12:49:08;;;;;;;4.10;3.70;;;;;;;;;;5064165;28;20056;-70
2022/06/26 12:51:34;;;;;;;4.78;3.50;;;;;;;;;;5050836;28;20095;-69
2022/06/26 12:54:01;;;;;;;4.57;3.55;;;;;;;;;;5051101;28;20453;-70
2022/06/26 12:56:27;;;;;;;4.82;3.60;;;;;;;;;;5050836;28;20045;-70
2022/06/26 12:58:53;;;;;;;3.97;3.53;;;;;;;;;;5051058;28;20102;-71
2022/06/26 13:01:18;;;;;;;7.55;3.95;;;;;;;;;;5050753;28;20068;-70
2022/06/26 13:03:44;;;;;;;6.13;3.75;;;;;;;;;;5050071;28;20124;-70
2022/06/26 13:06:10;;;;;;;4.07;3.70;;;;;;;;;;5051078;28;20037;-70
2022/06/26 13:08:36;;;;;;;5.03;4.50;;;;;;;;;;5033040;28;20049;-69
2022/06/26 13:13:47;;;;;;;8.50;4.60;;;;;;;;;;5050748;28;20084;-70
2022/06/26 13:16:13;;;;;;;8.00;4.53;;;;;;;;;;5032617;28;20536;-71
2022/06/26 13:18:38;;;;;;;7.10;3.95;;;;;;;;;;5050470;28;20406;-70
2022/06/26 13:21:04;;;;;;;4.43;4.03;;;;;;;;;;5032834;28;20040;-71
2022/06/26 13:23:30;;;;;;;8.70;3.75;;;;;;;;;;5050393;28;20040;-70
2022/06/26 13:25:56;;;;;;;4.25;3.80;;;;;;;;;;5049574;28;20043;-70
2022/06/26 13:28:22;;;;;;;9.00;4.60;;;;;;;;;;5050220;28;20049;-71
2022/06/26 13:30:48;;;;;;;5.68;3.85;;;;;;;;;;5050839;28;20044;-69
2022/06/26 13:33:14;;;;;;;6.97;4.00;;;;;;;;;;5050279;28;20309;-70
2022/06/26 13:35:40;;;;;;;5.80;5.38;;;;;;;;;;5050553;28;20045;-70
2022/06/26 13:38:06;;;;;;;6.22;4.00;;;;;;;;;;5050397;28;20039;-69
2022/06/26 13:40:32;;;;;;;4.50;4.03;;;;;;;;;;5032312;28;20425;-70
2022/06/26 13:42:58;;;;;;;4.57;4.18;;;;;;;;;;5050342;28;20040;-69
2022/06/26 13:45:24;;;;;;;4.97;4.15;;;;;;;;;;5015742;28;20111;-69
2022/06/26 13:47:49;;;;;;;8.63;5.20;;;;;;;;;;5050008;28;20516;-70
2022/06/26 13:50:17;;;;;;;4.60;4.30;;;;;;;;;;5048355;28;20509;-71
2022/06/26 13:52:43;;;;;;;6.72;4.43;;;;;;;;;;5068689;28;20070;-70
2022/06/26 13:55:09;;;;;;;6.10;3.83;;;;;;;;;;5070121;28;20039;-69
2022/06/26 13:57:36;;;;;;;9.27;3.92;;;;;;;;;;5070684;28;20579;-69
2022/06/26 14:00:03;;;;;;;8.55;3.88;;;;;;;;;;5070980;28;20056;-71
2022/06/26 14:02:38;;;;;;;4.15;3.80;;;;;;;;;;5069749;28;20047;-70
2022/06/26 14:05:04;;;;;;;4.13;3.83;;;;;;;;;;5069659;28;20507;-69
2022/06/26 14:07:30;;;;;;;5.10;4.30;;;;;;;;;;5069248;28;20540;-70
2022/06/26 14:09:56;;;;;;;5.35;4.80;;;;;;;;;;5069789;28;20048;-70
2022/06/26 14:12:22;;;;;;;7.05;6.38;;;;;;;;;;5018346;28;20037;-70
2022/06/26 14:14:48;;;;;;;7.03;6.53;;;;;;;;;;5069832;28;20157;-68
2022/06/26 14:17:14;;;;;;;6.95;6.22;;;;;;;;;;5069726;28;20151;-70
2022/06/26 14:19:40;;;;;;;6.32;5.80;;;;;;;;;;5069803;28;20067;-70
2022/06/26 14:27:34;;;;;;;4.25;3.70;;;;;;;;;;5069315;28;20501;-71
2022/06/26 14:30:00;;;;;;;7.13;3.85;;;;;;;;;;5069515;28;20105;-69
2022/06/26 14:32:26;;;;;;;4.50;4.00;;;;;;;;;;5069283;28;20037;-71
2022/06/26 14:34:53;;;;;;;5.63;4.22;;;;;;;;;;5068072;28;20051;-70
2022/06/26 14:37:19;;;;;;;4.35;3.95;;;;;;;;;;5068957;28;20504;-72
2022/06/26 14:39:44;;;;;;;5.30;4.25;;;;;;;;;;5069298;28;20479;-70
2022/06/26 14:42:10;;;;;;;4.05;3.75;;;;;;;;;;5069082;28;20032;-71
2022/06/26 14:44:36;;;;;;;5.57;3.80;;;;;;;;;;5069108;28;20063;-71
2022/06/26 14:47:05;;;;;;;10.70;4.35;;;;;;;;;;5069472;28;20077;-69
2022/06/26 14:49:31;;;;;;;7.68;3.85;;;;;;;;;;5058161;28;20048;-71
2022/06/26 14:51:57;;;;;;;9.00;3.55;;;;;;;;;;5049327;28;20094;-71
2022/06/26 14:54:24;;;;;;;7.40;3.83;;;;;;;;;;5048621;28;20520;-70
2022/06/26 14:56:50;;;;;;;9.80;4.00;;;;;;;;;;5049034;28;20127;-70
2022/06/26 14:59:15;;;;;;;12.20;3.42;;;;;;;;;;5048812;28;20132;-70
2022/06/26 15:01:41;;;;;;;7.68;4.03;;;;;;;;;;5031192;28;20076;-71
2022/06/26 15:04:08;;;;;;;5.68;3.70;;;;;;;;;;5048749;28;20456;-70
2022/06/26 15:06:34;;;;;;;6.00;4.03;;;;;;;;;;5030880;28;20041;-71
2022/06/26 15:09:00;;;;;;;9.55;4.65;;;;;;;;;;5049428;28;20049;-70
2022/06/26 15:11:26;;;;;;;6.53;4.50;;;;;;;;;;5049038;28;20048;-70
2022/06/26 15:13:52;;;;;;;20.85;5.18;;;;;;;;;;5048740;28;20041;-70
2022/06/26 15:16:18;;;;;;;9.18;4.35;;;;;;;;;;5047350;28;20067;-71
2022/06/26 15:18:44;;;;;;;6.85;4.75;;;;;;;;;;5048597;28;20040;-72
2022/06/26 15:21:10;;;;;;;5.82;4.30;;;;;;;;;;5048761;28;20041;-72
2022/06/26 15:23:37;;;;;;;5.57;4.07;;;;;;;;;;5048406;28;20575;-71
2022/06/26 15:26:04;;;;;;;3.88;3.58;;;;;;;;;;5030820;28;20041;-70
2022/06/26 15:28:30;;;;;;;3.95;3.65;;;;;;;;;;5034480;28;20140;-69
2022/06/26 15:30:56;;;;;;;5.97;4.18;;;;;;;;;;5052977;28;20112;-71
2022/06/26 15:33:22;;;;;;;5.70;3.85;;;;;;;;;;5052489;28;20071;-70
2022/06/26 15:35:48;;;;;;;4.15;3.88;;;;;;;;;;5034473;28;20040;-70
2022/06/26 15:38:14;;;;;;;5.32;3.15;;;;;;;;;;5050754;28;20129;-70
2022/06/26 15:40:40;;;;;;;13.63;10.05;;;;;;;;;;5034048;28;20139;-69
2022/06/26 15:43:05;;;;;;;5.15;4.60;;;;;;;;;;5034365;28;20516;-69
2022/06/26 15:45:31;;;;;;;5.65;4.55;;;;;;;;;;5051997;28;20471;-70
2022/06/26 15:47:58;;;;;;;6.00;4.22;;;;;;;;;;5052204;28;20044;-71
2022/06/26 15:50:23;;;;;;;4.63;4.22;;;;;;;;;;5051933;28;20065;-71
2022/06/26 15:52:49;;;;;;;5.15;4.57;;;;;;;;;;5052340;28;20471;-71
2022/06/26 15:55:15;;;;;;;5.78;5.10;;;;;;;;;;5034153;28;20059;-71
2022/06/26 15:57:41;;;;;;;7.95;6.20;;;;;;;;;;5051824;28;20041;-69
2022/06/26 16:00:07;;;;;;;4.00;3.70;;;;;;;;;;5052314;28;20507;-68
2022/06/26 16:02:40;;;;;;;6.05;4.00;;;;;;;;;;5052020;28;20570;-71
2022/06/26 16:05:08;;;;;;;3.72;3.45;;;;;;;;;;5051842;28;20048;-70
2022/06/26 16:07:33;;;;;;;8.52;3.90;;;;;;;;;;5017253;28;20045;-70
2022/06/26 16:10:00;;;;;;;3.72;3.42;;;;;;;;;;5051407;28;20548;-72
2022/06/26 16:12:26;;;;;;;9.38;3.67;;;;;;;;;;5033636;28;20037;-69
2022/06/26 16:14:51;;;;;;;3.85;3.40;;;;;;;;;;5051433;28;20051;-69
2022/06/26 16:17:17;;;;;;;3.80;3.47;;;;;;;;;;5051525;28;20506;-71
2022/06/26 16:19:43;;;;;;;4.65;3.60;;;;;;;;;;5051083;28;20051;-69
2022/06/26 16:27:38;;;;;;;7.70;3.92;;;;;;;;;;5051101;28;20048;-69
2022/06/26 16:30:04;;;;;;;4.53;4.18;;;;;;;;;;5051511;28;20465;-69
2022/06/26 16:32:31;;;;;;;4.18;3.78;;;;;;;;;;5016337;28;20048;-71
2022/06/26 16:34:57;;;;;;;6.78;4.05;;;;;;;;;;5033526;28;20115;-70
2022/06/26 16:37:23;;;;;;;4.45;3.80;;;;;;;;;;5050938;28;20048;-71
2022/06/26 16:39:49;;;;;;;5.47;4.68;;;;;;;;;;5031991;28;20048;-70
2022/06/26 16:42:15;;;;;;;4.88;3.80;;;;;;;;;;5050990;28;20045;-69
2022/06/26 16:44:41;;;;;;;5.20;4.70;;;;;;;;;;5050749;28;20135;-69
2022/06/26 16:47:07;;;;;;;4.22;3.92;;;;;;;;;;5051068;28;20532;-70
2022/06/26 16:49:33;;;;;;;8.68;3.85;;;;;;;;;;5050627;28;20572;-71
2022/06/26 16:51:59;;;;;;;3.88;3.30;;;;;;;;;;5069667;28;20128;-70
2022/06/26 16:54:25;;;;;;;4.38;3.33;;;;;;;;;;5070237;28;20127;-70
2022/06/26 16:56:51;;;;;;;4.50;3.72;;;;;;;;;;5036415;28;20097;-68
2022/06/26 16:59:17;;;;;;;5.57;3.60;;;;;;;;;;5070688;28;20048;-70
2022/06/26 17:01:43;;;;;;;5.05;4.55;;;;;;;;;;5070845;28;20203;-69
2022/06/26 17:04:09;;;;;;;4.93;4.60;;;;;;;;;;5070793;28;20226;-70
2022/06/26 17:06:38;;;;;;;5.95;3.67;;;;;;;;;;5071089;28;20413;-70
2022/06/26 17:09:04;;;;;;;6.72;4.18;;;;;;;;;;5070635;28;20060;-70
2022/06/26 17:11:30;;;;;;;4.18;3.78;;;;;;;;;;5068894;28;20032;-71
2022/06/26 17:13:56;;;;;;;8.88;3.70;;;;;;;;;;5070342;28;20054;-71
2022/06/26 17:16:22;;;;;;;4.60;3.70;;;;;;;;;;5070477;28;20135;-69
2022/06/26 17:18:49;;;;;;;11.57;3.70;;;;;;;;;;5069841;28;20106;-70
2022/06/26 17:21:15;;;;;;;4.07;3.72;;;;;;;;;;5070466;28;20040;-70
2022/06/26 17:23:41;;;;;;;13.43;6.60;;;;;;;;;;5070005;28;20050;-70
2022/06/26 17:26:06;;;;;;;4.60;4.10;;;;;;;;;;5070207;28;20114;-69
2022/06/26 17:28:32;;;;;;;6.38;4.10;;;;;;;;;;5068423;28;20056;-69
2022/06/26 17:30:58;;;;;;;4.60;4.30;;;;;;;;;;5070413;28;20040;-70
2022/06/26 17:33:24;;;;;;;5.22;3.80;;;;;;;;;;5070247;28;20052;-71
2022/06/26 17:35:50;;;;;;;5.15;4.53;;;;;;;;;;5070134;28;20036;-69
2022/06/26 17:38:16;;;;;;;6.25;3.90;;;;;;;;;;5052469;28;20123;-71
2022/06/26 17:40:43;;;;;;;5.45;4.75;;;;;;;;;;5052582;28;21178;-71
2022/06/26 17:43:09;;;;;;;8.27;4.30;;;;;;;;;;5070186;28;20032;-70
2022/06/26 17:45:35;;;;;;;4.95;4.55;;;;;;;;;;5051937;28;20044;-70
2022/06/26 17:48:01;;;;;;;5.32;4.80;;;;;;;;;;5070064;28;20040;-70
2022/06/26 17:50:27;;;;;;;8.20;6.00;;;;;;;;;;5051941;28;20060;-70
2022/06/26 17:52:55;;;;;;;7.93;5.90;;;;;;;;;;5050760;28;20048;-71
2022/06/26 17:55:21;;;;;;;10.82;4.75;;;;;;;;;;5052214;28;20140;-70
2022/06/26 17:57:47;;;;;;;6.22;5.72;;;;;;;;;;5052352;28;20072;-71
2022/06/26 18:00:20;;;;;;;6.65;5.47;;;;;;;;;;5035406;28;20120;-71
2022/06/26 18:02:50;;;;;;;7.93;6.40;;;;;;;;;;5034288;28;20049;-71
2022/06/26 18:05:16;;;;;;;11.55;6.70;;;;;;;;;;5050691;28;20546;-69
2022/06/26 18:07:42;;;;;;;6.70;6.10;;;;;;;;;;5032593;28;20037;-70
2022/06/26 18:10:08;;;;;;;11.65;6.10;;;;;;;;;;5032954;28;20052;-70
2022/06/26 18:12:34;;;;;;;9.00;5.88;;;;;;;;;;5033483;28;20045;-71
2022/06/26 18:15:00;;;;;;;10.68;5.40;;;;;;;;;;5032090;28;20572;-70
2022/06/26 18:17:26;;;;;;;5.70;4.72;;;;;;;;;;5049829;28;20429;-70
2022/06/26 18:19:52;;;;;;;31.90;11.18;;;;;;;;;;5049506;28;20041;-69
2022/06/26 18:22:18;;;;;;;24.95;19.75;;;;;;;;;;5049936;28;20045;-68
2022/06/26 18:24:44;;;;;;;24.73;14.43;;;;;;;;;;5049232;28;20044;-68
2022/06/26 18:27:10;;;;;;;29.67;16.33;;;;;;;;;;5049926;28;20033;-70
2022/06/26 18:29:37;;;;;;;24.77;14.02;;;;;;;;;;5049708;28;20049;-70
2022/06/26 18:32:02;;;;;;;27.17;13.48;;;;;;;;;;5031603;28;20044;-71
2022/06/26 18:34:28;;;;;;;14.73;10.52;;;;;;;;;;5049246;28;20044;-71
2022/06/26 18:36:54;;;;;;;18.73;11.48;;;;;;;;;;5031376;28;20029;-71
2022/06/26 18:39:20;;;;;;;19.80;11.45;;;;;;;;;;5015195;28;20045;-70
2022/06/26 18:41:46;;;;;;;18.38;11.00;;;;;;;;;;5049130;28;20451;-70
2022/06/26 18:44:12;;;;;;;21.42;13.65;;;;;;;;;;5049130;28;20041;-70
2022/06/26 18:46:41;;;;;;;25.25;10.95;;;;;;;;;;5049002;28;20539;-69
2022/06/26 18:49:07;;;;;;;45.88;12.13;;;;;;;;;;5048891;28;20538;-70
2022/06/26 18:51:33;;;;;;;13.90;10.68;;;;;;;;;;5049096;28;20051;-71
2022/06/26 18:53:59;;;;;;;27.27;13.18;;;;;;;;;;5049586;28;20428;-70
2022/06/26 18:56:25;;;;;;;15.68;13.23;;;;;;;;;;5050026;28;20041;-69
2022/06/26 18:58:51;;;;;;;27.95;20.00;;;;;;;;;;5049428;28;20539;-71
2022/06/26 19:01:17;;;;;;;20.60;17.02;;;;;;;;;;5031473;28;20040;-70
2022/06/26 19:03:43;;;;;;;44.67;23.65;;;;;;;;;;5052982;28;20041;-69
2022/06/26 19:06:09;;;;;;;38.22;24.95;;;;;;;;;;5053321;28;20045;-71
2022/06/26 19:08:35;;;;;;;33.00;19.38;;;;;;;;;;5052917;28;20049;-71
2022/06/26 19:11:01;;;;;;;33.30;19.40;;;;;;;;;;5053161;28;20060;-70
2022/06/26 19:16:12;;;;;;;25.60;15.93;;;;;;;;;;5053324;28;20052;-71
2022/06/26 19:18:38;;;;;;;22.23;14.80;;;;;;;;;;5034995;28;20049;-70
2022/06/26 19:21:04;;;;;;;29.05;15.80;;;;;;;;;;5052080;28;20071;-71
2022/06/26 19:23:30;;;;;;;29.13;14.25;;;;;;;;;;5053416;28;20051;-70
2022/06/26 19:25:56;;;;;;;29.67;14.05;;;;;;;;;;5053427;28;20120;-74
2022/06/26 19:28:22;;;;;;;33.58;14.70;;;;;;;;;;5052796;28;20064;-71
2022/06/26 19:30:48;;;;;;;30.92;15.52;;;;;;;;;;5053116;28;20106;-70
2022/06/26 19:33:14;;;;;;;34.38;17.13;;;;;;;;;;5052913;28;20098;-70
2022/06/26 19:35:40;;;;;;;34.50;21.50;;;;;;;;;;5034770;28;20160;-71
2022/06/26 19:38:06;;;;;;;23.45;19.23;;;;;;;;;;5052685;28;20045;-70
2022/06/26 19:40:32;;;;;;;24.40;15.82;;;;;;;;;;5052603;28;20033;-69
2022/06/26 19:42:57;;;;;;;25.45;14.77;;;;;;;;;;5034303;28;20083;-71
2022/06/26 19:45:24;;;;;;;22.05;16.52;;;;;;;;;;5034449;28;20153;-71
2022/06/26 19:47:49;;;;;;;25.33;17.23;;;;;;;;;;5034280;28;20041;-71
2022/06/26 19:53:00;;;;;;;24.88;17.77;;;;;;;;;;5052253;28;20045;-70
2022/06/26 19:55:26;;;;;;;24.30;18.52;;;;;;;;;;5034657;28;20638;-70
2022/06/26 19:57:52;;;;;;;31.30;19.48;;;;;;;;;;5034261;28;20057;-69
2022/06/26 20:00:19;;;;;;;29.50;19.02;;;;;;;;;;5052150;28;20120;-70